Hines Creek, Canada
Current Conditions -  °F | °C
As of 11:00 AM on Monday 26 Jan 2015 (Local Time) from CYPE Reporting Station
Broken Clouds Broken Clouds  
Wind Chill: 30°   Ceiling: 25000
Heat Index: 37°   Visibility: 15mi
Dew Point: 30°   Wind: 10mph
Humidity: 75%   Direction: 230°SW
Pressure: 29.75"   Gusts: NA
Location:  56.23°N, 118.6°W
Report Text: CYPE 261800Z 23009KT 15SM FEW100 BKN250 03/M01 A2975 RMK AC1CI6 SLP098
Loading
Personal Weather Stations






























Interactive Weather Map New forecast layout! Learn more

10-Day Weather Forecast

Advertisements
Track Severe Weather on mobile